Time;durP1;ratioP1;P1;durP2;ratioP2;P2;SDS_P1;SDS_P2;PMS_P1;PMS_P2;Temp;Humidity;BMP_temperature;BMP_pressure;BME280_temperature;BME280_humidity;BME280_pressure;Samples;Min_cycle;Max_cycle;Signal;HPM_P1;HPM_P2
2022/06/21 00:02:10;;;;;;;;;;;13.20;99.90;;;;;;5007848;28;19910;-74
2022/06/21 00:04:36;;;;;;;;;;;13.10;99.90;;;;;;5007674;28;19909;-75
2022/06/21 00:07:03;;;;;;;;;;;13.10;99.90;;;;;;5001978;28;19917;-75
2022/06/21 00:09:28;;;;;;;;;;;13.00;99.90;;;;;;4993921;28;19905;-75
2022/06/21 00:11:54;;;;;;;;;;;13.00;99.90;;;;;;4996010;28;19929;-75
2022/06/21 00:14:19;;;;;;;;;;;13.00;99.90;;;;;;4997389;28;19977;-74
2022/06/21 00:16:45;;;;;;;;;;;13.00;99.90;;;;;;4996617;28;19906;-75
2022/06/21 00:19:15;;;;;;;;;;;12.90;99.90;;;;;;4999559;28;19912;-74
2022/06/21 00:21:41;;;;;;;;;;;12.90;99.90;;;;;;4996202;28;19906;-74
2022/06/21 00:24:07;;;;;;;;;;;12.90;99.90;;;;;;5000335;28;19914;-74
2022/06/21 00:26:32;;;;;;;;;;;12.90;99.90;;;;;;4999968;28;20290;-75
2022/06/21 00:28:58;;;;;;;;;;;12.80;99.90;;;;;;4997694;28;19968;-74
2022/06/21 00:31:26;;;;;;;;;;;12.80;99.90;;;;;;4997396;28;19956;-75
2022/06/21 00:33:52;;;;;;;;;;;12.80;99.90;;;;;;4997561;28;19905;-74
2022/06/21 00:36:28;;;;;;;;;;;12.80;99.90;;;;;;4996609;28;19968;-75
2022/06/21 00:38:55;;;;;;;;;;;12.80;99.90;;;;;;4995588;28;19933;-75
2022/06/21 00:41:37;;;;;;;;;;;12.70;99.90;;;;;;4996961;28;19905;-75
2022/06/21 00:44:04;;;;;;;;;;;12.70;99.90;;;;;;4980390;28;19910;-74
2022/06/21 00:46:29;;;;;;;;;;;12.70;99.90;;;;;;4997934;28;19924;-74
2022/06/21 00:48:55;;;;;;;;;;;12.70;99.90;;;;;;4999626;28;19906;-74
2022/06/21 00:51:24;;;;;;;;;;;12.70;99.90;;;;;;5003017;28;19986;-74
2022/06/21 00:53:53;;;;;;;;;;;12.60;99.90;;;;;;5001837;28;20005;-74
2022/06/21 00:56:18;;;;;;;;;;;12.60;99.90;;;;;;4999474;28;19905;-74
2022/06/21 00:58:44;;;;;;;;;;;12.60;99.90;;;;;;5000100;28;19905;-75
2022/06/21 01:01:20;;;;;;;;;;;12.60;99.90;;;;;;5000150;28;19917;-75
2022/06/21 01:03:47;;;;;;;;;;;12.60;99.90;;;;;;4999544;28;19917;-75
2022/06/21 01:06:18;;;;;;;;;;;12.50;99.90;;;;;;4998567;28;19906;-75
2022/06/21 01:08:46;;;;;;;;;;;12.50;99.90;;;;;;5000318;28;20283;-74
2022/06/21 01:11:13;;;;;;;;;;;12.40;99.90;;;;;;5000019;28;19905;-74
2022/06/21 01:13:40;;;;;;;;;;;12.40;99.90;;;;;;4999849;28;20354;-74
2022/06/21 01:16:06;;;;;;;;;;;12.40;99.90;;;;;;5000259;28;19905;-74
2022/06/21 01:18:32;;;;;;;;;;;12.30;99.90;;;;;;5001395;28;20363;-74
2022/06/21 01:20:59;;;;;;;;;;;12.30;99.90;;;;;;5001506;28;20512;-74
2022/06/21 01:23:39;;;;;;;;;;;12.20;99.90;;;;;;5001166;28;19945;-74
2022/06/21 01:26:11;;;;;;;;;;;12.20;99.90;;;;;;5002401;28;19937;-74
2022/06/21 01:28:37;;;;;;;;;;;12.20;99.90;;;;;;4999968;28;19905;-74
2022/06/21 01:31:02;;;;;;;;;;;12.30;99.90;;;;;;5000652;28;20351;-75
2022/06/21 01:33:33;;;;;;;;;;;12.30;99.90;;;;;;5009111;28;19913;-75
2022/06/21 01:36:00;;;;;;;;;;;12.30;99.90;;;;;;5006244;28;19906;-75
2022/06/21 01:38:28;;;;;;;;;;;12.20;99.90;;;;;;5000776;28;19906;-75
2022/06/21 01:40:56;;;;;;;;;;;12.20;99.90;;;;;;5001274;28;19912;-75
2022/06/21 01:43:24;;;;;;;;;;;12.20;99.90;;;;;;5002872;28;19917;-76
2022/06/21 01:45:56;;;;;;;;;;;12.30;99.90;;;;;;5014208;28;20000;-76
2022/06/21 01:48:27;;;;;;;;;;;12.30;99.90;;;;;;5007894;28;19906;-76
2022/06/21 01:50:56;;;;;;;;;;;12.30;99.90;;;;;;5003094;28;19960;-75
2022/06/21 01:53:23;;;;;;;;;;;12.30;99.90;;;;;;5002856;28;19906;-76
2022/06/21 01:56:03;;;;;;;;;;;12.30;99.90;;;;;;5001574;28;20043;-75
2022/06/21 01:58:35;;;;;;;;;;;12.30;99.90;;;;;;5002573;28;19905;-75
2022/06/21 02:01:17;;;;;;;;;;;12.30;99.90;;;;;;5004258;28;19906;-75
2022/06/21 02:03:43;;;;;;;;;;;12.30;99.90;;;;;;5015346;28;19913;-75
2022/06/21 02:06:11;;;;;;;;;;;12.40;99.90;;;;;;5011578;28;19912;-75
2022/06/21 02:08:39;;;;;;;;;;;12.30;99.90;;;;;;5002787;28;20009;-75
2022/06/21 02:11:09;;;;;;;;;;;12.30;99.90;;;;;;4998568;28;19906;-76
2022/06/21 02:13:41;;;;;;;;;;;12.30;99.90;;;;;;4999838;28;19957;-75
2022/06/21 02:16:09;;;;;;;;;;;12.40;99.90;;;;;;4998415;28;20040;-75
2022/06/21 02:18:37;;;;;;;;;;;12.30;99.90;;;;;;4997413;28;19905;-75
2022/06/21 02:21:20;;;;;;;;;;;12.20;99.90;;;;;;4997757;28;19913;-75
2022/06/21 02:23:50;;;;;;;;;;;12.20;99.90;;;;;;4997633;28;19989;-75
2022/06/21 02:26:15;;;;;;;;;;;12.10;99.90;;;;;;4999063;28;20414;-75
2022/06/21 02:28:41;;;;;;;;;;;12.10;99.90;;;;;;5000380;28;19905;-75
2022/06/21 02:31:07;;;;;;;;;;;12.00;99.90;;;;;;5001154;28;20016;-76
2022/06/21 02:33:33;;;;;;;;;;;12.00;99.90;;;;;;5000883;28;19945;-75
2022/06/21 02:36:01;;;;;;;;;;;12.00;99.90;;;;;;4999093;28;19905;-75
2022/06/21 02:38:30;;;;;;;;;;;12.00;99.90;;;;;;4999637;28;20386;-75
2022/06/21 02:41:03;;;;;;;;;;;11.90;99.90;;;;;;5000120;28;19906;-75
2022/06/21 02:43:43;;;;;;;;;;;11.90;99.90;;;;;;5004604;28;19910;-75
2022/06/21 02:46:18;;;;;;;;;;;11.90;99.90;;;;;;5004587;28;19914;-75
2022/06/21 02:48:48;;;;;;;;;;;11.90;99.90;;;;;;5001514;28;19913;-76
2022/06/21 02:51:16;;;;;;;;;;;11.90;99.90;;;;;;5000496;28;19906;-74
2022/06/21 02:53:57;;;;;;;;;;;11.90;99.90;;;;;;5001696;28;20286;-75
2022/06/21 02:56:25;;;;;;;;;;;11.90;99.90;;;;;;5001146;28;19913;-75
2022/06/21 02:58:52;;;;;;;;;;;11.90;99.90;;;;;;5002230;28;19905;-75
2022/06/21 03:01:20;;;;;;;;;;;11.90;99.90;;;;;;5001986;28;20334;-75
2022/06/21 03:03:47;;;;;;;;;;;11.90;99.90;;;;;;5002054;28;19916;-74
2022/06/21 03:06:14;;;;;;;;;;;11.90;99.90;;;;;;5002593;28;20285;-75
2022/06/21 03:08:54;;;;;;;;;;;11.90;99.90;;;;;;5001430;28;19912;-75
2022/06/21 03:11:21;;;;;;;;;;;11.90;99.90;;;;;;5001321;28;19921;-74
2022/06/21 03:13:47;;;;;;;;;;;11.90;99.90;;;;;;5003168;28;19916;-75
2022/06/21 03:16:14;;;;;;;;;;;11.90;99.90;;;;;;5004407;28;19906;-75
2022/06/21 03:18:42;;;;;;;;;;;11.90;99.90;;;;;;5004866;28;19913;-75
2022/06/21 03:21:10;;;;;;;;;;;11.90;99.90;;;;;;5006595;28;20260;-75
2022/06/21 03:23:36;;;;;;;;;;;11.90;99.90;;;;;;5009533;28;19921;-74
2022/06/21 03:26:04;;;;;;;;;;;11.90;99.90;;;;;;5005290;28;19905;-74
2022/06/21 03:28:29;;;;;;;;;;;11.90;99.90;;;;;;5004162;28;19906;-74
2022/06/21 03:30:59;;;;;;;;;;;11.90;99.90;;;;;;5010597;22;19926;-74
2022/06/21 03:33:25;;;;;;;;;;;11.90;99.90;;;;;;4976837;28;19906;-75
2022/06/21 03:35:51;;;;;;;;;;;11.80;99.90;;;;;;4976608;28;19941;-75
2022/06/21 03:38:16;;;;;;;;;;;11.90;99.90;;;;;;4977583;28;19906;-74
2022/06/21 03:43:31;;;;;;;;;;;11.90;99.90;;;;;;4979987;28;19920;-75
2022/06/21 03:45:59;;;;;;;;;;;11.90;99.90;;;;;;4979759;28;19912;-76
2022/06/21 03:48:28;;;;;;;;;;;11.90;99.90;;;;;;4977941;28;19913;-76
2022/06/21 03:51:07;;;;;;;;;;;11.90;99.90;;;;;;4975100;28;20004;-75
2022/06/21 03:53:34;;;;;;;;;;;11.90;99.90;;;;;;4976095;28;19913;-76
2022/06/21 03:56:08;;;;;;;;;;;11.90;99.90;;;;;;4975849;28;19906;-76
2022/06/21 03:58:44;;;;;;;;;;;12.00;99.90;;;;;;4976209;28;19910;-77
2022/06/21 04:01:21;;;;;;;;;;;12.00;99.90;;;;;;4975829;28;19940;-76
2022/06/21 04:03:47;;;;;;;;;;;11.90;99.90;;;;;;4990763;28;19916;-75
2022/06/21 04:06:31;;;;;;;;;;;12.00;99.90;;;;;;4990946;28;19906;-75
2022/06/21 04:09:05;;;;;;;;;;;12.00;99.90;;;;;;4976229;28;20363;-76
2022/06/21 04:11:37;;;;;;;;;;;12.00;99.90;;;;;;4974557;28;19910;-76
2022/06/21 04:14:11;;;;;;;;;;;11.90;99.90;;;;;;4975986;28;19909;-75
2022/06/21 04:16:42;;;;;;;;;;;12.00;99.90;;;;;;4975909;28;19906;-76
2022/06/21 04:19:10;;;;;;;;;;;12.00;99.90;;;;;;4976853;28;20255;-76
2022/06/21 04:21:39;;;;;;;;;;;12.00;99.90;;;;;;4990580;28;19906;-75
2022/06/21 04:24:09;;;;;;;;;;;11.90;99.90;;;;;;4990652;28;19917;-75
2022/06/21 04:26:38;;;;;;;;;;;12.00;99.90;;;;;;4976083;28;19912;-76
2022/06/21 04:29:06;;;;;;;;;;;12.00;99.90;;;;;;4990724;28;20308;-75
2022/06/21 04:31:38;;;;;;;;;;;12.10;99.90;;;;;;4975781;28;19942;-75
2022/06/21 04:34:17;;;;;;;;;;;12.10;99.90;;;;;;4975795;28;19981;-75
2022/06/21 04:36:45;;;;;;;;;;;12.10;99.90;;;;;;4975703;28;19949;-75
2022/06/21 04:39:17;;;;;;;;;;;12.10;99.90;;;;;;4974231;28;19906;-76
2022/06/21 04:41:48;;;;;;;;;;;12.20;99.90;;;;;;4975759;28;19910;-76
2022/06/21 04:44:19;;;;;;;;;;;12.30;99.90;;;;;;4976242;28;19914;-76
2022/06/21 04:46:44;;;;;;;;;;;12.30;99.90;;;;;;4976098;28;20394;-75
2022/06/21 04:49:25;;;;;;;;;;;12.40;99.90;;;;;;4976786;28;19906;-76
2022/06/21 04:52:10;;;;;;;;;;;12.40;99.90;;;;;;4975781;28;19914;-76
2022/06/21 04:54:36;;;;;;;;;;;12.40;99.90;;;;;;4976481;28;20402;-76
2022/06/21 04:57:02;;;;;;;;;;;12.50;99.90;;;;;;4976361;28;19906;-76
2022/06/21 04:59:33;;;;;;;;;;;12.60;99.90;;;;;;4991335;28;19979;-76
2022/06/21 05:01:59;;;;;;;;;;;12.70;99.90;;;;;;4976241;28;19913;-75
2022/06/21 05:04:27;;;;;;;;;;;12.80;99.90;;;;;;4976292;28;20283;-76
2022/06/21 05:06:55;;;;;;;;;;;12.90;99.90;;;;;;4977097;28;19974;-76
2022/06/21 05:09:22;;;;;;;;;;;13.00;99.90;;;;;;4975906;28;20275;-76
2022/06/21 05:11:52;;;;;;;;;;;13.00;99.90;;;;;;4978104;28;19924;-76
2022/06/21 05:14:19;;;;;;;;;;;13.10;99.90;;;;;;4979351;28;19906;-76
2022/06/21 05:16:45;;;;;;;;;;;13.30;99.90;;;;;;4981783;28;19929;-76
2022/06/21 05:19:14;;;;;;;;;;;13.40;99.90;;;;;;4993952;28;19906;-75
2022/06/21 05:21:43;;;;;;;;;;;13.50;99.90;;;;;;4976917;28;19906;-75
2022/06/21 05:24:09;;;;;;;;;;;13.50;99.90;;;;;;4979993;28;19910;-76
2022/06/21 05:26:41;;;;;;;;;;;13.50;99.90;;;;;;4980619;28;19950;-76
2022/06/21 05:29:11;;;;;;;;;;;13.60;99.90;;;;;;4979947;28;20318;-76
2022/06/21 05:31:43;;;;;;;;;;;13.70;99.90;;;;;;4978424;28;20331;-76
2022/06/21 05:34:18;;;;;;;;;;;13.70;99.90;;;;;;4980484;28;19906;-76
2022/06/21 05:36:53;;;;;;;;;;;13.70;99.90;;;;;;4996915;28;20006;-76
2022/06/21 05:39:22;;;;;;;;;;;13.80;99.90;;;;;;4979856;28;19906;-76
2022/06/21 05:41:49;;;;;;;;;;;13.90;99.90;;;;;;4978072;28;19906;-76
2022/06/21 05:44:30;;;;;;;;;;;14.00;99.90;;;;;;4980387;28;19918;-76
2022/06/21 05:47:13;;;;;;;;;;;14.10;99.90;;;;;;4981678;28;19906;-76
2022/06/21 05:49:40;;;;;;;;;;;14.10;99.90;;;;;;4980209;28;19913;-77
2022/06/21 05:52:07;;;;;;;;;;;14.20;99.90;;;;;;4979747;28;19902;-76
2022/06/21 05:54:35;;;;;;;;;;;14.30;99.90;;;;;;4980108;28;19917;-76
2022/06/21 05:57:02;;;;;;;;;;;14.30;99.90;;;;;;4990347;28;19917;-76
2022/06/21 05:59:28;;;;;;;;;;;14.30;99.90;;;;;;4984746;28;20355;-76
2022/06/21 06:02:05;;;;;;;;;;;14.40;99.90;;;;;;4980881;28;19917;-76
2022/06/21 06:04:40;;;;;;;;;;;14.50;99.90;;;;;;4980281;28;19937;-77
2022/06/21 06:07:07;;;;;;;;;;;14.60;99.90;;;;;;4982224;28;19906;-76
2022/06/21 06:09:38;;;;;;;;;;;14.70;99.90;;;;;;4986649;28;19948;-77
2022/06/21 06:12:13;;;;;;;;;;;14.80;99.90;;;;;;4993647;28;19902;-76
2022/06/21 06:14:51;;;;;;;;;;;14.80;99.90;;;;;;4996881;28;19894;-76
2022/06/21 06:17:20;;;;;;;;;;;14.70;99.90;;;;;;4999403;28;19929;-76
2022/06/21 06:19:49;;;;;;;;;;;14.80;99.90;;;;;;4976893;28;19910;-76
2022/06/21 06:22:25;;;;;;;;;;;14.80;99.90;;;;;;4959388;28;19910;-76
2022/06/21 06:25:10;;;;;;;;;;;14.80;99.90;;;;;;4958609;28;19960;-76
2022/06/21 06:27:46;;;;;;;;;;;14.80;99.90;;;;;;4958921;28;19912;-75
2022/06/21 06:30:15;;;;;;;;;;;14.90;99.90;;;;;;4959004;28;19990;-76
2022/06/21 06:32:44;;;;;;;;;;;15.00;99.90;;;;;;4973685;28;20210;-76
2022/06/21 06:35:23;;;;;;;;;;;15.10;99.90;;;;;;4959346;28;19906;-76
2022/06/21 06:37:49;;;;;;;;;;;15.30;99.90;;;;;;4958844;28;19930;-76
2022/06/21 06:40:18;;;;;;;;;;;15.50;99.90;;;;;;4959268;28;20001;-76
2022/06/21 06:42:44;;;;;;;;;;;15.60;99.90;;;;;;4958970;28;20009;-76
2022/06/21 06:45:16;;;;;;;;;;;15.70;99.90;;;;;;4958214;28;19985;-76
2022/06/21 06:47:45;;;;;;;;;;;15.90;99.90;;;;;;4973590;28;19922;-77
2022/06/21 06:50:19;;;;;;;;;;;15.90;99.90;;;;;;4970781;28;19988;-77
2022/06/21 06:52:51;;;;;;;;;;;16.00;99.90;;;;;;4976880;28;19933;-76
2022/06/21 06:55:31;;;;;;;;;;;16.00;99.90;;;;;;4983818;28;19910;-76
2022/06/21 06:58:02;;;;;;;;;;;16.10;99.90;;;;;;4978299;28;19906;-76
2022/06/21 07:00:33;;;;;;;;;;;16.10;99.90;;;;;;4977813;28;19913;-77
2022/06/21 07:03:13;;;;;;;;;;;16.10;99.90;;;;;;4976331;28;19953;-75
2022/06/21 07:05:42;;;;;;;;;;;16.30;99.90;;;;;;4979314;28;19956;-75
2022/06/21 07:08:15;;;;;;;;;;;16.20;99.90;;;;;;4981403;28;20387;-75
2022/06/21 07:10:41;;;;;;;;;;;16.20;99.90;;;;;;4980968;28;20376;-74
2022/06/21 07:13:08;;;;;;;;;;;16.20;99.90;;;;;;4978153;28;20368;-75
2022/06/21 07:15:39;;;;;;;;;;;16.20;99.90;;;;;;4978171;28;19937;-75
2022/06/21 07:18:06;;;;;;;;;;;16.20;99.90;;;;;;4975234;28;19941;-76
2022/06/21 07:20:39;;;;;;;;;;;16.20;99.90;;;;;;4975939;28;19912;-76
2022/06/21 07:23:12;;;;;;;;;;;16.50;99.90;;;;;;4977607;28;19909;-75
2022/06/21 07:25:43;;;;;;;;;;;16.70;99.90;;;;;;4978716;28;20431;-75
2022/06/21 07:28:29;;;;;;;;;;;17.00;99.90;;;;;;4979313;28;19906;-75
2022/06/21 07:30:56;;;;;;;;;;;17.20;99.90;;;;;;4977677;28;20287;-77
2022/06/21 07:33:28;;;;;;;;;;;17.20;99.90;;;;;;4978030;28;19906;-76
2022/06/21 07:35:57;;;;;;;;;;;17.30;99.90;;;;;;4972951;28;20000;-76
2022/06/21 07:38:27;;;;;;;;;;;17.30;99.90;;;;;;4976870;28;19909;-76
2022/06/21 07:40:55;;;;;;;;;;;17.30;99.90;;;;;;4966424;28;19917;-76
2022/06/21 07:43:29;;;;;;;;;;;17.20;99.90;;;;;;4976234;28;19910;-76
2022/06/21 07:45:57;;;;;;;;;;;17.10;99.90;;;;;;4977508;28;19980;-76
2022/06/21 07:48:29;;;;;;;;;;;16.80;99.90;;;;;;4976787;28;19953;-76
2022/06/21 07:51:07;;;;;;;;;;;16.80;99.90;;;;;;4976361;28;19913;-76
2022/06/21 07:53:43;;;;;;;;;;;16.80;99.90;;;;;;4976199;28;19996;-75
2022/06/21 07:56:23;;;;;;;;;;;16.80;99.90;;;;;;4977531;28;19989;-76
2022/06/21 07:58:54;;;;;;;;;;;16.90;99.90;;;;;;4978828;28;19906;-75
2022/06/21 08:07:16;;;;;;;;;;;17.70;99.90;;;;;;4978276;28;19913;-75
2022/06/21 08:10:14;;;;;;;;;;;18.10;99.90;;;;;;4975704;28;20034;-75
2022/06/21 08:12:39;;;;;;;;;;;18.40;99.90;;;;;;4955597;28;19962;-75
2022/06/21 08:15:05;;;;;;;;;;;18.50;99.90;;;;;;4976593;28;19906;-76
2022/06/21 08:17:33;;;;;;;;;;;18.40;99.90;;;;;;4977964;28;19906;-75
2022/06/21 08:20:01;;;;;;;;;;;18.10;99.90;;;;;;4977824;28;19912;-75
2022/06/21 08:22:37;;;;;;;;;;;18.10;99.90;;;;;;4978984;28;20363;-75
2022/06/21 08:25:23;;;;;;;;;;;18.30;99.90;;;;;;4976756;28;19917;-75
2022/06/21 08:27:55;;;;;;;;;;;18.40;99.90;;;;;;4961395;28;20447;-74
2022/06/21 08:30:24;;;;;;;;;;;18.70;99.90;;;;;;4978966;28;19914;-75
2022/06/21 08:32:53;;;;;;;;;;;18.90;99.90;;;;;;4981431;28;19929;-77
2022/06/21 08:35:25;;;;;;;;;;;18.80;99.90;;;;;;4979299;28;20367;-77
2022/06/21 08:37:57;;;;;;;;;;;18.90;99.90;;;;;;4980099;28;19977;-76
2022/06/21 08:40:44;;;;;;;;;;;18.80;99.90;;;;;;4981330;28;19906;-76
2022/06/21 08:43:26;;;;;;;;;;;18.70;99.90;;;;;;4989157;28;19917;-76
2022/06/21 08:45:51;;;;;;;;;;;18.60;99.90;;;;;;4997646;28;19906;-77
2022/06/21 08:48:36;;;;;;;;;;;18.70;99.90;;;;;;4995977;28;19913;-76
2022/06/21 08:51:10;;;;;;;;;;;18.50;99.90;;;;;;4991883;28;19913;-77
2022/06/21 08:53:43;;;;;;;;;;;18.30;99.90;;;;;;4964265;28;19906;-76
2022/06/21 08:56:15;;;;;;;;;;;18.30;99.90;;;;;;4959211;28;20061;-76
2022/06/21 08:58:46;;;;;;;;;;;18.40;99.90;;;;;;4957678;28;19913;-75
2022/06/21 09:01:20;;;;;;;;;;;18.40;99.90;;;;;;4958106;28;19914;-75
2022/06/21 09:03:53;;;;;;;;;;;18.60;99.90;;;;;;4958690;28;19910;-75
2022/06/21 09:06:37;;;;;;;;;;;18.60;99.90;;;;;;4958320;28;19945;-75
2022/06/21 09:09:21;;;;;;;;;;;18.60;99.90;;;;;;4961190;28;19906;-76
2022/06/21 09:12:05;;;;;;;;;;;18.60;99.90;;;;;;4962173;29;19993;-75
2022/06/21 09:14:45;;;;;;;;;;;18.70;99.90;;;;;;4961747;28;19906;-76
2022/06/21 09:17:31;;;;;;;;;;;18.70;99.90;;;;;;4960559;28;19957;-76
2022/06/21 09:20:05;;;;;;;;;;;18.70;99.90;;;;;;4960916;28;19906;-75
2022/06/21 09:22:42;;;;;;;;;;;18.90;99.90;;;;;;4969847;28;19917;-75
2022/06/21 09:25:14;;;;;;;;;;;19.10;99.90;;;;;;4979782;28;19957;-75
2022/06/21 09:27:48;;;;;;;;;;;19.10;99.90;;;;;;4979691;28;19913;-75
2022/06/21 09:30:17;;;;;;;;;;;19.20;99.90;;;;;;4980373;28;19929;-75
2022/06/21 09:32:51;;;;;;;;;;;19.30;99.90;;;;;;5028651;22;19929;-56
2022/06/21 09:35:21;;;;;;;;;;;19.30;99.90;;;;;;5015810;28;19910;-56
2022/06/21 09:37:49;;;;;;;;;;;19.40;99.90;;;;;;5017675;28;20382;-55
2022/06/21 09:40:31;;;;;;;;;;;19.50;99.90;;;;;;5017050;28;19913;-54
2022/06/21 09:43:15;;;;;;;;;;;19.50;99.90;;;;;;5012764;28;19912;-55
2022/06/21 09:45:50;;;;;;;;;;;19.60;99.90;;;;;;5017592;28;19914;-57
2022/06/21 09:48:21;;;;;;;;;;;19.70;99.90;;;;;;5017146;28;20370;-56
2022/06/21 09:50:54;;;;;;;;;;;19.80;99.90;;;;;;5015473;28;19905;-56
2022/06/21 09:53:20;;;;;;;;;;;19.80;99.90;;;;;;5016144;28;20337;-54
2022/06/21 09:55:56;;;;;;;;;;;19.90;99.90;;;;;;5014081;28;19913;-55
2022/06/21 09:58:29;;;;;;;;;;;19.90;99.90;;;;;;5016896;28;19959;-57
2022/06/21 10:01:12;;;;;;;;;;;19.90;99.90;;;;;;5013596;28;19909;-56
2022/06/21 10:03:43;;;;;;;;;;;19.80;99.90;;;;;;5008296;28;19909;-57
2022/06/21 10:06:15;;;;;;;;;;;19.70;99.90;;;;;;5016507;28;20035;-54
2022/06/21 10:08:59;;;;;;;;;;;19.60;99.90;;;;;;5015965;28;19995;-56
2022/06/21 10:11:34;;;;;;;;;;;19.60;99.90;;;;;;5016505;28;19911;-57
2022/06/21 10:14:18;;;;;;;;;;;19.70;99.90;;;;;;5007566;28;20000;-57
2022/06/21 10:17:02;;;;;;;;;;;19.70;99.90;;;;;;4997702;28;19913;-55
2022/06/21 10:19:46;;;;;;;;;;;19.90;99.90;;;;;;5014273;28;20333;-55
2022/06/21 10:22:28;;;;;;;;;;;20.00;99.90;;;;;;5016157;28;19944;-55
2022/06/21 10:25:12;;;;;;;;;;;20.00;99.90;;;;;;5016228;28;19910;-57
2022/06/21 10:28:04;;;;;;;;;;;20.10;99.90;;;;;;5015009;28;20379;-55
2022/06/21 10:30:48;;;;;;;;;;;20.10;99.90;;;;;;5014051;28;20297;-54
2022/06/21 10:33:28;;;;;;;;;;;20.20;99.90;;;;;;5015638;28;19921;-57
2022/06/21 10:36:12;;;;;;;;;;;20.30;99.90;;;;;;5015832;28;19948;-56
2022/06/21 10:38:44;;;;;;;;;;;20.10;99.90;;;;;;5014406;28;19905;-55
2022/06/21 10:41:18;;;;;;;;;;;20.00;99.90;;;;;;5016107;28;20278;-55
2022/06/21 10:43:43;;;;;;;;;;;20.00;99.90;;;;;;5015517;28;19925;-56
2022/06/21 10:46:18;;;;;;;;;;;20.10;99.90;;;;;;5015525;28;19909;-54
2022/06/21 10:48:49;;;;;;;;;;;20.10;99.90;;;;;;5015539;28;19909;-56
2022/06/21 10:51:33;;;;;;;;;;;20.10;99.90;;;;;;5015672;28;19969;-56
2022/06/21 10:54:17;;;;;;;;;;;20.20;99.90;;;;;;5015525;28;20314;-56
2022/06/21 10:57:10;;;;;;;;;;;20.30;99.90;;;;;;5016119;28;19959;-54
2022/06/21 11:01:17;;;;;;;;;;;20.50;99.90;;;;;;5017589;28;19905;-56
2022/06/21 11:02:24;;;;;;;;;;;20.70;99.90;;;;;;5014967;28;20433;-55
2022/06/21 11:05:10;;;;;;;;;;;20.70;99.90;;;;;;5014161;28;20394;-53
2022/06/21 11:07:54;;;;;;;;;;;20.70;99.90;;;;;;5014267;28;19912;-56
2022/06/21 11:10:24;;;;;;;;;;;20.70;99.90;;;;;;5015315;28;19918;-55
2022/06/21 11:12:52;;;;;;;;;;;20.70;99.90;;;;;;5014968;28;19965;-56
2022/06/21 11:15:18;;;;;;;;;;;20.80;99.90;;;;;;5015207;28;19951;-55
2022/06/21 11:18:02;;;;;;;;;;;20.80;99.90;;;;;;5014881;28;19951;-55
2022/06/21 11:20:46;;;;;;;;;;;20.80;99.90;;;;;;5014774;28;20433;-56
2022/06/21 11:23:12;;;;;;;;;;;20.70;99.90;;;;;;5015050;28;20355;-57
2022/06/21 11:25:52;;;;;;;;;;;20.70;99.90;;;;;;5015053;28;19960;-57
2022/06/21 11:28:17;;;;;;;;;;;20.70;99.90;;;;;;5014911;28;19905;-58
2022/06/21 11:31:01;;;;;;;;;;;20.80;99.90;;;;;;5014403;28;19913;-57
2022/06/21 11:33:29;;;;;;;;;;;20.80;99.90;;;;;;5013493;28;20004;-57
2022/06/21 11:36:00;;;;;;;;;;;20.70;99.90;;;;;;5012575;28;19913;-55
2022/06/21 11:38:32;;;;;;;;;;;20.80;99.90;;;;;;5011137;28;20039;-56
2022/06/21 11:41:08;;;;;;;;;;;20.90;99.90;;;;;;5013033;28;19905;-56
2022/06/21 11:43:34;;;;;;;;;;;20.90;99.90;;;;;;5017795;28;20366;-54
2022/06/21 11:46:08;;;;;;;;;;;21.00;99.90;;;;;;5013188;28;19910;-56
2022/06/21 11:48:43;;;;;;;;;;;21.10;99.90;;;;;;5013156;28;19905;-52
2022/06/21 11:51:11;;;;;;;;;;;21.30;99.90;;;;;;5011634;28;19952;-54
2022/06/21 11:53:55;;;;;;;;;;;21.50;99.90;;;;;;5013068;28;20024;-57
2022/06/21 11:56:30;;;;;;;;;;;21.60;99.90;;;;;;5013136;28;19913;-56
2022/06/21 11:59:04;;;;;;;;;;;21.70;99.90;;;;;;5012999;28;19911;-56
2022/06/21 12:01:34;;;;;;;;;;;21.80;99.90;;;;;;5011605;28;19905;-56
2022/06/21 12:04:00;;;;;;;;;;;21.90;99.90;;;;;;5012629;28;19956;-57
2022/06/21 12:06:29;;;;;;;;;;;21.90;99.90;;;;;;5013365;28;20011;-56
2022/06/21 12:09:10;;;;;;;;;;;22.00;99.90;;;;;;5014103;28;19905;-57
2022/06/21 12:11:59;;;;;;;;;;;22.00;99.90;;;;;;5012708;28;19992;-55
2022/06/21 12:14:25;;;;;;;;;;;22.00;99.90;;;;;;5014506;28;19981;-57
2022/06/21 12:16:50;;;;;;;;;;;22.00;99.80;;;;;;5014033;28;19951;-56
2022/06/21 12:19:20;;;;;;;;;;;22.10;99.80;;;;;;5016054;28;19927;-55
2022/06/21 12:21:48;;;;;;;;;;;22.10;99.30;;;;;;5015272;28;19912;-53
2022/06/21 12:24:15;;;;;;;;;;;22.10;98.20;;;;;;5015719;28;19913;-57
2022/06/21 12:26:41;;;;;;;;;;;22.00;97.90;;;;;;5016238;28;19905;-58
2022/06/21 12:29:12;;;;;;;;;;;22.00;98.40;;;;;;5015829;28;19932;-56
2022/06/21 12:31:41;;;;;;;;;;;22.10;98.00;;;;;;5015596;28;20335;-57
2022/06/21 12:34:10;;;;;;;;;;;22.20;98.00;;;;;;5015825;28;20254;-57
2022/06/21 12:36:51;;;;;;;;;;;22.20;97.40;;;;;;5006796;28;20232;-57
2022/06/21 12:39:17;;;;;;;;;;;22.30;97.00;;;;;;5005221;28;19956;-56
2022/06/21 12:42:01;;;;;;;;;;;22.30;96.90;;;;;;5008385;28;19917;-58
2022/06/21 12:44:32;;;;;;;;;;;22.40;97.20;;;;;;5014587;28;19967;-58
2022/06/21 12:47:13;;;;;;;;;;;22.40;97.40;;;;;;5015262;28;19949;-59
2022/06/21 12:49:38;;;;;;;;;;;22.40;97.40;;;;;;5016702;28;20275;-57
2022/06/21 12:52:27;;;;;;;;;;;22.50;96.80;;;;;;5017255;28;19905;-58
2022/06/21 12:54:56;;;;;;;;;;;22.40;96.90;;;;;;5015177;28;20360;-58
2022/06/21 12:57:21;;;;;;;;;;;22.40;97.00;;;;;;5017333;28;20335;-57
2022/06/21 12:59:50;;;;;;;;;;;22.30;96.60;;;;;;5014154;28;19960;-55
2022/06/21 13:02:34;;;;;;;;;;;22.40;96.50;;;;;;5009759;28;19909;-58
2022/06/21 13:05:18;;;;;;;;;;;22.30;96.00;;;;;;4998347;28;19914;-57
2022/06/21 13:08:02;;;;;;;;;;;22.30;96.70;;;;;;5014930;28;19910;-57
2022/06/21 13:10:27;;;;;;;;;;;22.40;96.90;;;;;;5017265;28;20335;-55
2022/06/21 13:12:55;;;;;;;;;;;22.40;96.40;;;;;;5012328;28;19952;-56
2022/06/21 13:15:39;;;;;;;;;;;22.60;95.90;;;;;;5015893;28;20433;-58
2022/06/21 13:18:05;;;;;;;;;;;22.70;95.70;;;;;;5015556;28;19905;-58
2022/06/21 13:20:39;;;;;;;;;;;22.70;94.90;;;;;;5016771;28;20000;-59
2022/06/21 13:23:25;;;;;;;;;;;22.80;95.10;;;;;;5014881;28;19977;-59
2022/06/21 13:25:51;;;;;;;;;;;23.00;94.70;;;;;;5014142;28;19928;-58
2022/06/21 13:28:36;;;;;;;;;;;23.10;94.80;;;;;;5016862;28;19905;-55
2022/06/21 13:31:25;;;;;;;;;;;23.10;94.60;;;;;;5016785;28;20335;-57
2022/06/21 13:34:09;;;;;;;;;;;23.30;94.40;;;;;;5017344;28;19963;-60
2022/06/21 13:36:37;;;;;;;;;;;23.40;93.90;;;;;;5017690;28;19905;-60
2022/06/21 13:39:14;;;;;;;;;;;23.40;93.00;;;;;;5017446;28;19905;-59
2022/06/21 13:44:34;;;;;;;;;;;23.40;93.10;;;;;;5017057;28;19916;-61
2022/06/21 13:47:05;;;;;;;;;;;23.30;93.00;;;;;;5017122;28;19915;-60
2022/06/21 13:49:35;;;;;;;;;;;23.30;92.50;;;;;;5017181;28;19962;-61
2022/06/21 13:52:06;;;;;;;;;;;23.30;93.00;;;;;;5018447;28;19959;-60
2022/06/21 13:54:36;;;;;;;;;;;23.30;93.10;;;;;;5016886;28;20352;-60
2022/06/21 13:57:24;;;;;;;;;;;23.20;93.00;;;;;;5017229;28;19906;-60
2022/06/21 13:59:52;;;;;;;;;;;23.20;93.30;;;;;;5015657;28;19906;-59
2022/06/21 14:02:40;;;;;;;;;;;23.20;93.10;;;;;;5016481;28;19987;-59
2022/06/21 14:05:16;;;;;;;;;;;23.00;93.20;;;;;;5016286;28;19912;-59
2022/06/21 14:07:56;;;;;;;;;;;23.10;92.90;;;;;;5015586;28;19912;-61
2022/06/21 14:10:24;;;;;;;;;;;23.00;93.20;;;;;;5016483;28;19905;-60
2022/06/21 14:12:53;;;;;;;;;;;23.00;93.40;;;;;;5016033;28;19921;-60
2022/06/21 14:15:24;;;;;;;;;;;23.00;93.60;;;;;;5016569;28;19984;-60
2022/06/21 14:18:05;;;;;;;;;;;23.10;93.40;;;;;;5016072;28;19909;-60
2022/06/21 14:20:42;;;;;;;;;;;23.10;93.50;;;;;;5016039;28;19995;-60
2022/06/21 14:23:15;;;;;;;;;;;23.20;93.60;;;;;;5015676;28;19912;-59
2022/06/21 14:25:46;;;;;;;;;;;23.30;92.90;;;;;;5015869;28;19906;-61
2022/06/21 14:28:19;;;;;;;;;;;23.30;92.90;;;;;;5015872;28;19905;-61
2022/06/21 14:30:51;;;;;;;;;;;23.30;92.90;;;;;;5016260;28;20338;-61
2022/06/21 14:33:29;;;;;;;;;;;23.40;93.10;;;;;;5015629;28;19920;-60
2022/06/21 14:36:15;;;;;;;;;;;23.50;92.60;;;;;;5016189;28;20358;-61
2022/06/21 14:38:40;;;;;;;;;;;23.30;92.50;;;;;;5015248;28;19913;-59
2022/06/21 14:41:14;;;;;;;;;;;23.30;92.80;;;;;;5015930;28;19905;-59
2022/06/21 14:43:46;;;;;;;;;;;23.50;93.30;;;;;;5015582;28;19913;-60
2022/06/21 14:46:23;;;;;;;;;;;23.60;92.90;;;;;;5015660;28;19909;-61
2022/06/21 14:48:57;;;;;;;;;;;23.80;91.80;;;;;;5016058;28;19959;-58
2022/06/21 14:51:27;;;;;;;;;;;23.70;92.10;;;;;;5015583;28;19905;-59
2022/06/21 14:53:53;;;;;;;;;;;23.70;91.80;;;;;;5015803;28;19911;-59
2022/06/21 14:56:18;;;;;;;;;;;23.70;91.80;;;;;;5015760;28;20000;-59
2022/06/21 14:59:02;;;;;;;;;;;23.60;91.90;;;;;;5015655;28;20366;-59